This is the latest recevied weather packets stored in our database for station/object SQ9SMC-13. If no packets are shown the sender has not sent any weather packets the latest 10 day(s).
| Time | Temp. | Humidity | Pressure | Rain* | Wind** | Luminosity | Snow |
|---|---|---|---|---|---|---|---|
| 1777515304 | -6.67° C | 97% | 1032 hPa | 0 mm | - | 0 W/m² | - |
| 1777515003 | -6.11° C | 97% | 1031.8 hPa | 0 mm | - | 0 W/m² | - |
| 1777514703 | -6.11° C | 96% | 1032 hPa | 0 mm | - | 0 W/m² | - |
| 1777514405 | -6.11° C | 96% | 1032 hPa | 0 mm | - | 0 W/m² | - |
| 1777514106 | -6.11° C | 96% | 1031.9 hPa | 0 mm | - | 0 W/m² | - |
| 1777513804 | -6.11° C | 96% | 1032 hPa | 0 mm | - | 0 W/m² | - |
| 1777513503 | -6.11° C | 96% | 1031.9 hPa | 0 mm | - | 0 W/m² | - |
| 1777512903 | -6.11° C | 96% | 1031.8 hPa | 0 mm | - | 0 W/m² | - |
| 1777512004 | -6.11° C | 96% | 1031.7 hPa | 0 mm | - | 0 W/m² | - |
| 1777511702 | -6.11° C | 96% | 1031.7 hPa | 0 mm | - | 0 W/m² | - |
| 1777511402 | -6.11° C | 95% | 1031.6 hPa | 0 mm | - | 0 W/m² | - |
| 1777511105 | -6.11° C | 95% | 1031.8 hPa | 0 mm | - | 0 W/m² | - |
| 1777510503 | -6.11° C | 95% | 1031.7 hPa | 0 mm | - | 0 W/m² | - |
| 1777509305 | -5.56° C | 94% | 1031.5 hPa | 0 mm | - | 0 W/m² | - |
| 1777507804 | -5.56° C | 93% | 1031.5 hPa | 0 mm | - | 0 W/m² | - |
| 1777497305 | -3.33° C | 85% | 1031.3 hPa | 0 mm | - | 0 W/m² | - |
| 1777496103 | -2.78° C | 84% | 1031.1 hPa | 0 mm | - | 0 W/m² | - |
| 1777493703 | -2.22° C | 80% | 1031 hPa | 0 mm | - | 0 W/m² | - |
| 1777492803 | -2.22° C | 78% | 1030.9 hPa | 0 mm | - | 0 W/m² | - |
| 1777490104 | 0° C | 70% | 1030.5 hPa | 0 mm | - | 0 W/m² | - |
| 1777489803 | 0° C | 69% | 1030.6 hPa | 0 mm | - | 0 W/m² | - |
| 1777487720 | 2.78° C | 57% | 1030.2 hPa | 0 mm | - | 0 W/m² | - |
| 1777487104 | 3.89° C | 54% | 1030.1 hPa | 0 mm | - | 0 W/m² | - |
| 1777486205 | 5° C | 50% | 1029.9 hPa | 0 mm | - | 1 W/m² | - |
| 1777484706 | 5.56° C | 47% | 1029.8 hPa | 0 mm | - | 8 W/m² | - |
* Rain latest hour (hover to see other rain measurements)
** Current wind speed in m/s (hover to see current wind gust speed)